Time;durP1;ratioP1;P1;durP2;ratioP2;P2;SDS_P1;SDS_P2;PMS_P1;PMS_P2;Temp;Humidity;BMP_temperature;BMP_pressure;BME280_temperature;BME280_humidity;BME280_pressure;Samples;Min_cycle;Max_cycle;Signal;HPM_P1;HPM_P2
2022/12/05 01:13:24;;;;;;;42.10;21.65;;;3.50;99.90;;;;;;4124957;28;20049;-67
2022/12/05 01:15:25;;;;;;;44.45;22.48;;;3.40;99.90;;;;;;4126205;28;20062;-65
2022/12/05 01:17:25;;;;;;;47.72;23.63;;;3.40;99.90;;;;;;4121929;28;20042;-66
2022/12/05 01:19:29;;;;;;;43.08;21.98;;;3.50;99.90;;;;;;4120157;28;20051;-66
2022/12/05 01:21:29;;;;;;;45.40;22.50;;;3.50;99.90;;;;;;4118630;28;20089;-66
2022/12/05 01:23:30;;;;;;;43.92;21.85;;;3.50;99.90;;;;;;4136948;28;20045;-67
2022/12/05 01:25:30;;;;;;;39.65;20.25;;;3.60;99.90;;;;;;4096701;28;20030;-66
2022/12/05 01:27:31;;;;;;;43.97;21.23;;;3.60;99.90;;;;;;4123994;28;20033;-66
2022/12/05 01:29:32;;;;;;;40.70;20.40;;;3.60;99.90;;;;;;4119905;28;20057;-66
2022/12/05 01:31:35;;;;;;;39.42;19.83;;;3.60;99.90;;;;;;4123066;28;20038;-69
2022/12/05 01:33:35;;;;;;;35.30;19.77;;;3.70;99.90;;;;;;4124784;28;20490;-66
2022/12/05 01:35:38;;;;;;;40.20;21.27;;;3.70;99.90;;;;;;4121904;28;20084;-65
2022/12/05 01:37:39;;;;;;;43.78;21.48;;;3.80;99.90;;;;;;4124108;28;20034;-66
2022/12/05 01:39:39;;;;;;;40.90;21.30;;;3.80;99.90;;;;;;4123452;28;20061;-66
2022/12/05 01:41:45;;;;;;;43.97;21.85;;;3.80;99.90;;;;;;4123280;28;20037;-66
2022/12/05 01:43:57;;;;;;;37.40;19.55;;;3.80;99.90;;;;;;4121367;28;20031;-65
2022/12/05 01:45:57;;;;;;;44.40;23.58;;;3.80;99.90;;;;;;4121010;28;20039;-65
2022/12/05 01:48:01;;;;;;;42.45;21.20;;;3.80;99.90;;;;;;4119911;28;20474;-65
2022/12/05 01:50:02;;;;;;;41.20;21.85;;;3.80;99.90;;;;;;4123809;28;20522;-65
2022/12/05 01:52:19;;;;;;;38.03;21.05;;;3.80;99.90;;;;;;4120837;28;20480;-65
2022/12/05 01:54:21;;;;;;;45.13;22.05;;;3.90;99.90;;;;;;4127069;28;20058;-65
2022/12/05 01:56:22;;;;;;;39.28;20.67;;;3.80;99.90;;;;;;4124604;28;20038;-66
2022/12/05 01:58:28;;;;;;;40.97;21.75;;;3.90;99.90;;;;;;4121786;28;20036;-66
2022/12/05 02:00:29;;;;;;;40.70;20.70;;;3.80;99.90;;;;;;4123044;28;20046;-71
2022/12/05 02:02:32;;;;;;;41.42;21.25;;;3.80;99.90;;;;;;4120371;28;20097;-71
2022/12/05 02:04:39;;;;;;;42.95;21.85;;;3.80;99.90;;;;;;4137424;23;20057;-95
2022/12/05 02:06:40;;;;;;;40.78;21.75;;;4.00;99.90;;;;;;4127512;28;20046;-94
2022/12/05 02:08:41;;;;;;;38.15;20.13;;;3.90;99.90;;;;;;4128897;28;20116;-94
2022/12/05 02:10:48;;;;;;;38.80;20.60;;;4.00;99.90;;;;;;4128149;28;20034;-93
2022/12/05 02:12:50;;;;;;;37.83;21.08;;;4.10;99.90;;;;;;4144841;28;20038;-94
2022/12/05 02:15:09;;;;;;;40.70;20.73;;;4.00;99.90;;;;;;4145086;28;20417;-92
2022/12/05 02:17:20;;;;;;;44.80;22.55;;;4.00;99.90;;;;;;4111551;28;20046;-93
2022/12/05 02:20:06;;;;;;;42.25;22.02;;;4.00;99.90;;;;;;4128917;28;20031;-92
2022/12/05 02:22:31;;;;;;;43.05;21.67;;;3.90;99.90;;;;;;4111193;28;20054;-92
2022/12/05 02:24:38;;;;;;;35.83;19.50;;;3.90;99.90;;;;;;4102582;28;20122;-93
2022/12/05 02:27:18;;;;;;;42.15;21.38;;;4.00;99.90;;;;;;4127266;28;20054;-93
2022/12/05 02:29:24;;;;;;;38.67;19.63;;;4.00;99.90;;;;;;4076272;28;20140;-93
2022/12/05 02:31:45;;;;;;;40.88;21.85;;;4.00;99.90;;;;;;4127727;28;20034;-93
2022/12/05 02:33:58;;;;;;;40.90;20.98;;;3.90;99.90;;;;;;4128252;28;20038;-93
2022/12/05 02:36:23;;;;;;;35.33;19.75;;;4.00;99.90;;;;;;4143849;28;20046;-92
2022/12/05 02:38:27;;;;;;;38.17;20.00;;;4.10;99.90;;;;;;4143998;28;20030;-93
2022/12/05 02:40:45;;;;;;;35.55;18.63;;;4.10;99.90;;;;;;4143522;28;20045;-94
2022/12/05 02:43:17;;;;;;;36.92;20.15;;;4.20;99.90;;;;;;4112114;28;20142;-94
2022/12/05 02:45:22;;;;;;;35.88;19.05;;;4.20;99.90;;;;;;4123428;28;20527;-93
2022/12/05 02:47:28;;;;;;;32.80;19.00;;;4.30;99.90;;;;;;4128895;28;20386;-93
2022/12/05 02:49:32;;;;;;;34.72;18.25;;;4.30;99.90;;;;;;4128738;28;20035;-93
2022/12/05 02:51:38;;;;;;;38.33;19.90;;;4.40;99.90;;;;;;4127045;28;20532;-94
2022/12/05 02:53:41;;;;;;;38.58;20.15;;;4.50;99.90;;;;;;4128222;28;20056;-93
2022/12/05 02:55:43;;;;;;;32.85;17.67;;;4.50;99.90;;;;;;4143786;28;20038;-93
2022/12/05 02:57:45;;;;;;;;;;;4.50;99.90;;;;;;4136359;28;20037;-94
2022/12/05 02:59:46;;;;;;;36.20;19.67;;;4.40;99.90;;;;;;4128627;28;20000;-93
2022/12/05 03:01:48;;;;;;;36.83;19.60;;;4.50;99.90;;;;;;4127408;28;20238;-93
2022/12/05 03:03:49;;;;;;;41.80;21.63;;;4.50;99.90;;;;;;4135182;28;20054;-93
2022/12/05 03:06:05;;;;;;;37.47;19.45;;;4.50;99.90;;;;;;4143131;28;20404;-94
2022/12/05 03:08:12;;;;;;;36.50;18.98;;;4.50;99.90;;;;;;4111724;28;20111;-92
2022/12/05 03:10:15;;;;;;;33.67;18.92;;;4.50;99.90;;;;;;4143352;28;20045;-93
2022/12/05 03:12:32;;;;;;;32.83;19.10;;;4.50;99.90;;;;;;4144488;28;20030;-92
2022/12/05 03:14:43;;;;;;;33.78;18.60;;;4.50;99.90;;;;;;4111558;28;20035;-93
2022/12/05 03:16:49;;;;;;;36.83;19.00;;;4.60;99.90;;;;;;4111090;28;20047;-91
2022/12/05 03:18:55;;;;;;;34.95;18.92;;;4.50;99.90;;;;;;4112015;28;20043;-93
2022/12/05 03:21:02;;;;;;;40.30;20.70;;;4.50;99.90;;;;;;4143604;28;20041;-92
2022/12/05 03:23:16;;;;;;;36.90;19.40;;;4.30;99.90;;;;;;4127062;28;20035;-93
2022/12/05 03:25:18;;;;;;;38.83;19.98;;;4.30;99.90;;;;;;4110693;28;20031;-92
2022/12/05 03:27:29;;;;;;;39.95;20.65;;;4.40;99.90;;;;;;4112047;28;20037;-92
2022/12/05 03:29:38;;;;;;;42.17;21.10;;;4.20;99.90;;;;;;4113339;28;20363;-93
2022/12/05 03:31:48;;;;;;;37.70;19.05;;;4.20;99.90;;;;;;4160739;28;20093;-92
2022/12/05 03:33:55;;;;;;;40.45;19.85;;;4.10;99.90;;;;;;4154280;28;20038;-93
2022/12/05 03:36:10;;;;;;;34.63;18.65;;;4.20;99.90;;;;;;4143012;28;20058;-92
2022/12/05 03:38:38;;;;;;;35.08;18.83;;;4.20;99.90;;;;;;4111406;28;20454;-92
2022/12/05 03:40:46;;;;;;;38.75;19.75;;;4.20;99.90;;;;;;4104602;28;20034;-93
2022/12/05 03:43:17;;;;;;;36.75;19.15;;;4.00;99.90;;;;;;4127772;28;20031;-93
2022/12/05 03:45:27;;;;;;;39.35;20.35;;;4.10;99.90;;;;;;4081695;28;20049;-95
2022/12/05 03:47:41;;;;;;;37.75;19.02;;;3.90;99.90;;;;;;4143935;28;20057;-93
2022/12/05 03:49:53;;;;;;;39.70;19.67;;;3.80;99.90;;;;;;4111687;28;20042;-94
2022/12/05 03:52:09;;;;;;;38.42;19.27;;;3.80;99.90;;;;;;4143715;28;20077;-93
2022/12/05 03:54:19;;;;;;;42.85;20.73;;;3.90;99.90;;;;;;4143738;28;20035;-93
2022/12/05 03:56:37;;;;;;;34.78;17.73;;;3.80;99.90;;;;;;4143327;28;20461;-93
2022/12/05 03:58:51;;;;;;;37.38;18.13;;;3.90;99.90;;;;;;4127264;28;20494;-93
2022/12/05 04:00:55;;;;;;;38.03;18.48;;;3.80;99.90;;;;;;4143333;28;20401;-94
2022/12/05 04:03:44;;;;;;;35.03;17.85;;;3.70;99.90;;;;;;4144285;28;20041;-94
2022/12/05 04:05:55;;;;;;;34.33;18.38;;;3.70;99.90;;;;;;4077381;29;20454;-96
2022/12/05 04:08:02;;;;;;;39.17;18.83;;;3.70;99.90;;;;;;4121215;28;20038;-94
2022/12/05 04:10:11;;;;;;;38.17;19.83;;;3.60;99.90;;;;;;4126678;28;20061;-94
2022/12/05 04:12:22;;;;;;;36.25;19.02;;;3.50;99.90;;;;;;4111625;28;20478;-92
2022/12/05 04:14:33;;;;;;;35.53;18.45;;;3.50;99.90;;;;;;4143562;28;20052;-94
2022/12/05 04:19:07;;;;;;;33.70;17.55;;;3.60;99.90;;;;;;4127595;28;20038;-94
2022/12/05 04:23:30;;;;;;;32.60;16.77;;;3.70;99.90;;;;;;4127744;28;20117;-94
2022/12/05 04:25:56;;;;;;;29.92;16.30;;;3.80;99.90;;;;;;4128682;28;20159;-92
2022/12/05 04:28:05;;;;;;;32.45;17.33;;;3.80;99.90;;;;;;4114013;28;20034;-93
2022/12/05 04:30:10;;;;;;;33.05;16.85;;;3.90;99.90;;;;;;4108267;28;20110;-94
2022/12/05 04:32:12;;;;;;;29.13;15.80;;;4.00;99.90;;;;;;4146685;28;20041;-93
2022/12/05 04:34:16;;;;;;;32.75;17.58;;;4.10;99.90;;;;;;4114605;28;20125;-95
2022/12/05 04:36:43;;;;;;;32.50;17.85;;;4.10;99.90;;;;;;4145811;28;20030;-93
2022/12/05 04:39:07;;;;;;;34.30;17.63;;;4.10;99.90;;;;;;4110795;28;20045;-93
2022/12/05 04:41:16;;;;;;;31.08;16.52;;;4.20;99.90;;;;;;4128675;28;20077;-94
2022/12/05 04:43:18;;;;;;;31.73;16.40;;;4.30;99.90;;;;;;4146607;28;20022;-93
2022/12/05 04:45:21;;;;;;;34.30;18.00;;;4.30;99.90;;;;;;4145946;28;20062;-93
2022/12/05 04:47:34;;;;;;;29.98;16.30;;;4.30;99.90;;;;;;4146860;28;20073;-94
2022/12/05 04:49:37;;;;;;;33.25;16.45;;;4.40;99.90;;;;;;4113825;28;20035;-93
2022/12/05 04:51:39;;;;;;;34.83;18.38;;;4.40;99.90;;;;;;4112905;28;20038;-93
2022/12/05 04:53:42;;;;;;;28.75;16.35;;;4.40;99.90;;;;;;4114262;28;20059;-94
2022/12/05 04:55:47;;;;;;;30.55;16.05;;;4.40;99.90;;;;;;4145134;28;20030;-95
2022/12/05 04:58:00;;;;;;;27.98;15.60;;;4.40;99.90;;;;;;4146747;28;20091;-93
2022/12/05 05:00:01;;;;;;;;;;;4.50;99.90;;;;;;4146855;28;20037;-95
2022/12/05 05:02:08;;;;;;;29.83;16.20;;;4.50;99.90;;;;;;4129291;28;19909;-95
2022/12/05 05:04:18;;;;;;;31.52;16.20;;;4.50;99.90;;;;;;4145504;28;20564;-93
2022/12/05 05:06:19;;;;;;;34.28;17.00;;;4.60;99.90;;;;;;4145805;28;20088;-95
2022/12/05 05:08:26;;;;;;;31.52;16.58;;;4.60;99.90;;;;;;4114289;28;20458;-94
2022/12/05 05:10:40;;;;;;;32.28;17.05;;;4.60;99.90;;;;;;4145501;28;21241;-94
2022/12/05 05:12:41;;;;;;;33.17;16.08;;;4.70;99.90;;;;;;4114112;28;20039;-93
2022/12/05 05:14:42;;;;;;;29.10;15.60;;;4.70;99.90;;;;;;4130141;28;20146;-95
2022/12/05 05:16:43;;;;;;;30.35;16.15;;;4.70;99.90;;;;;;4129274;28;20494;-92
2022/12/05 05:18:49;;;;;;;31.05;15.88;;;4.70;99.90;;;;;;4129826;28;20030;-94
2022/12/05 05:20:49;;;;;;;32.05;16.65;;;4.70;99.90;;;;;;4144957;28;20092;-92
2022/12/05 05:22:51;;;;;;;32.78;16.23;;;4.70;99.90;;;;;;4113895;28;20034;-94
2022/12/05 05:24:52;;;;;;;31.40;17.23;;;4.70;99.90;;;;;;4146123;28;20069;-94
2022/12/05 05:26:52;;;;;;;33.67;16.50;;;4.70;99.90;;;;;;4129408;28;20824;-93
2022/12/05 05:28:56;;;;;;;29.45;16.52;;;4.80;99.90;;;;;;4130146;28;20046;-95
2022/12/05 05:31:02;;;;;;;30.27;16.30;;;4.70;99.90;;;;;;4145619;28;20030;-95
2022/12/05 05:33:02;;;;;;;30.55;16.83;;;4.70;99.90;;;;;;4130201;28;20034;-94
2022/12/05 05:35:03;;;;;;;29.40;16.02;;;4.70;99.90;;;;;;4113129;28;20034;-93
2022/12/05 05:37:04;;;;;;;31.67;16.92;;;4.70;99.90;;;;;;4128048;28;20429;-95
2022/12/05 05:39:05;;;;;;;33.22;16.75;;;4.70;99.90;;;;;;4129540;28;20080;-94
2022/12/05 05:41:16;;;;;;;31.05;17.15;;;4.70;99.90;;;;;;4112358;28;20034;-94
2022/12/05 05:43:16;;;;;;;32.17;15.77;;;4.70;99.90;;;;;;4129535;28;20034;-93
2022/12/05 05:45:17;;;;;;;31.13;16.13;;;4.70;99.90;;;;;;4113502;28;20110;-94
2022/12/05 05:47:18;;;;;;;30.33;15.10;;;4.70;99.90;;;;;;4114622;28;20039;-95
2022/12/05 05:49:19;;;;;;;29.05;15.30;;;4.70;99.90;;;;;;4146197;28;20037;-93
2022/12/05 05:51:21;;;;;;;26.63;14.13;;;4.70;99.90;;;;;;4112800;28;20085;-95
2022/12/05 05:53:22;;;;;;;31.80;16.13;;;4.80;99.90;;;;;;4129293;28;20093;-94
2022/12/05 05:55:22;;;;;;;27.92;15.38;;;4.80;99.90;;;;;;4129520;28;20065;-95
2022/12/05 05:57:23;;;;;;;29.55;15.90;;;4.80;99.90;;;;;;4114793;28;20390;-94
2022/12/05 05:59:24;;;;;;;26.15;14.77;;;4.60;99.90;;;;;;4114221;28;20099;-95
2022/12/05 06:01:25;;;;;;;24.95;14.25;;;4.70;99.90;;;;;;4137635;28;20501;-95
2022/12/05 06:03:26;;;;;;;25.25;13.77;;;4.70;99.90;;;;;;4135865;28;20111;-95
2022/12/05 06:05:27;;;;;;;28.58;15.68;;;4.70;99.90;;;;;;4112395;28;20054;-94
2022/12/05 06:07:28;;;;;;;30.42;15.65;;;4.70;99.90;;;;;;4113605;28;20044;-93
2022/12/05 06:09:28;;;;;;;28.67;14.50;;;4.70;99.90;;;;;;4097386;28;20039;-95
2022/12/05 06:11:30;;;;;;;27.92;15.07;;;4.70;99.90;;;;;;4112705;28;20031;-94
2022/12/05 06:13:31;;;;;;;28.73;14.90;;;4.70;99.90;;;;;;4104695;28;20042;-95
2022/12/05 06:15:35;;;;;;;25.30;14.10;;;4.70;99.90;;;;;;4094960;28;20267;-96
2022/12/05 06:17:37;;;;;;;25.15;13.43;;;4.80;99.90;;;;;;4078103;28;20154;-96
2022/12/05 06:19:39;;;;;;;26.60;14.35;;;4.80;99.90;;;;;;4105734;28;20031;-95
2022/12/05 06:22:06;;;;;;;24.25;13.63;;;4.80;99.90;;;;;;4094434;28;20063;-96
2022/12/05 06:24:16;;;;;;;25.27;14.35;;;4.80;99.90;;;;;;4104906;28;20038;-96
2022/12/05 06:26:28;;;;;;;23.65;13.60;;;4.80;99.90;;;;;;4097252;28;20039;-96
2022/12/05 06:28:32;;;;;;;29.67;14.82;;;4.80;99.90;;;;;;4083487;29;20043;-96
2022/12/05 06:30:57;;;;;;;34.92;15.73;;;4.80;99.90;;;;;;4098308;28;20055;-95
2022/12/05 06:33:11;;;;;;;26.38;14.32;;;4.80;99.90;;;;;;4125879;28;20050;-66
2022/12/05 06:35:14;;;;;;;24.33;12.98;;;4.80;99.90;;;;;;4126657;28;20077;-67
2022/12/05 06:37:15;;;;;;;23.13;12.85;;;4.80;99.90;;;;;;4128254;28;20042;-65
2022/12/05 06:39:15;;;;;;;25.95;14.65;;;4.80;99.90;;;;;;4127725;28;20049;-66
2022/12/05 06:41:18;;;;;;;23.40;12.98;;;4.90;99.90;;;;;;4125864;28;20030;-66
2022/12/05 06:43:19;;;;;;;24.95;13.85;;;4.90;99.90;;;;;;4124733;28;20050;-66
2022/12/05 06:45:19;;;;;;;24.48;13.90;;;4.90;99.90;;;;;;4127125;28;20073;-66
2022/12/05 06:47:20;;;;;;;29.10;14.20;;;5.00;99.90;;;;;;4128699;28;20046;-66
2022/12/05 06:49:22;;;;;;;24.38;13.32;;;5.00;99.90;;;;;;4124464;28;20046;-66
2022/12/05 06:51:23;;;;;;;24.05;12.98;;;5.00;99.90;;;;;;4125838;28;20049;-66
2022/12/05 06:53:24;;;;;;;21.30;12.23;;;5.00;99.90;;;;;;4127393;28;20496;-66
2022/12/05 06:55:24;;;;;;;21.65;12.45;;;5.00;99.90;;;;;;4125401;28;20042;-66
2022/12/05 06:57:27;;;;;;;23.00;12.80;;;5.00;99.90;;;;;;4121121;28;20046;-66
2022/12/05 06:59:28;;;;;;;;;;;5.00;99.90;;;;;;4124986;28;20046;-66
2022/12/05 07:01:37;;;;;;;24.45;13.65;;;5.00;99.90;;;;;;4122393;28;19917;-66
2022/12/05 07:03:38;;;;;;;26.13;13.52;;;4.90;99.90;;;;;;4124489;28;20042;-67
2022/12/05 07:05:39;;;;;;;24.08;13.18;;;4.90;99.90;;;;;;4123362;28;20120;-66
2022/12/05 07:07:39;;;;;;;25.00;13.52;;;4.80;99.90;;;;;;4122949;28;20101;-67
2022/12/05 07:09:50;;;;;;;24.13;13.80;;;4.80;99.90;;;;;;4123897;28;20065;-67
2022/12/05 07:11:50;;;;;;;21.45;12.10;;;4.70;99.90;;;;;;4121696;28;20034;-67
2022/12/05 07:13:51;;;;;;;26.65;14.63;;;4.70;99.90;;;;;;4121334;28;20495;-67
2022/12/05 07:15:52;;;;;;;24.35;13.20;;;4.60;99.90;;;;;;4116965;28;20045;-67
2022/12/05 07:17:52;;;;;;;22.45;12.73;;;4.60;99.90;;;;;;4123507;28;20037;-66
2022/12/05 07:19:53;;;;;;;22.20;13.23;;;4.50;99.90;;;;;;4123434;28;20044;-67
2022/12/05 07:21:54;;;;;;;25.20;13.32;;;4.30;99.90;;;;;;4120619;28;20038;-66
2022/12/05 07:23:54;;;;;;;22.17;13.40;;;4.20;99.90;;;;;;4119613;28;20053;-67
2022/12/05 07:25:56;;;;;;;24.65;13.27;;;4.20;99.90;;;;;;4123254;28;20531;-67
2022/12/05 07:27:57;;;;;;;19.10;11.15;;;4.20;99.90;;;;;;4124053;28;20046;-67
2022/12/05 07:29:57;;;;;;;21.77;11.65;;;4.30;99.90;;;;;;4124128;28;20660;-68
2022/12/05 07:31:58;;;;;;;21.27;11.50;;;4.30;99.90;;;;;;4129834;28;20241;-68
2022/12/05 07:33:58;;;;;;;19.27;11.30;;;4.30;99.90;;;;;;4142748;28;20037;-67
2022/12/05 07:36:02;;;;;;;18.63;10.60;;;4.30;99.90;;;;;;4137881;28;20502;-67
2022/12/05 07:38:03;;;;;;;19.17;11.18;;;4.40;99.90;;;;;;4138491;28;20473;-68
2022/12/05 07:40:04;;;;;;;18.73;10.40;;;4.40;99.90;;;;;;4140178;28;20531;-68
2022/12/05 07:42:05;;;;;;;16.65;10.40;;;4.40;99.90;;;;;;4140427;28;20038;-68
2022/12/05 07:44:06;;;;;;;16.73;9.70;;;4.50;99.90;;;;;;4140692;28;20038;-69
2022/12/05 07:46:10;;;;;;;17.17;9.90;;;4.50;99.90;;;;;;4143193;28;21188;-68
2022/12/05 07:48:10;;;;;;;22.23;11.50;;;4.50;99.90;;;;;;4142773;28;20034;-68
2022/12/05 07:50:12;;;;;;;18.23;10.15;;;4.40;99.90;;;;;;4140872;28;20053;-68
2022/12/05 07:52:13;;;;;;;20.40;11.35;;;4.40;99.90;;;;;;4140476;28;20468;-68
2022/12/05 07:54:13;;;;;;;21.05;10.82;;;4.40;99.90;;;;;;4140718;28;20046;-67
2022/12/05 07:56:16;;;;;;;18.15;10.02;;;4.40;99.90;;;;;;4142918;28;20495;-68
2022/12/05 07:58:17;;;;;;;15.73;9.48;;;4.40;99.90;;;;;;4143157;28;20456;-68
2022/12/05 08:00:18;;;;;;;19.38;10.05;;;4.40;99.90;;;;;;4143245;28;20113;-67
2022/12/05 08:02:19;;;;;;;17.52;10.00;;;4.40;99.90;;;;;;4143990;28;20369;-67
2022/12/05 08:04:19;;;;;;;15.30;9.45;;;4.50;99.90;;;;;;4145068;28;20078;-67
2022/12/05 08:06:23;;;;;;;15.10;9.05;;;4.50;99.90;;;;;;4143013;28;20074;-67
2022/12/05 08:08:23;;;;;;;18.23;9.20;;;4.50;99.90;;;;;;4144758;28;20065;-67
2022/12/05 08:10:24;;;;;;;15.30;9.20;;;4.50;99.90;;;;;;4144346;28;20029;-67
2022/12/05 08:12:25;;;;;;;15.20;8.57;;;4.50;99.90;;;;;;4144761;28;20034;-67
2022/12/05 08:14:25;;;;;;;14.35;8.82;;;4.50;99.90;;;;;;4142754;28;20042;-67
2022/12/05 08:16:28;;;;;;;15.32;8.32;;;4.50;99.90;;;;;;4143471;28;20480;-67
2022/12/05 08:18:29;;;;;;;;;;;4.50;99.90;;;;;;4142771;28;20034;-67
2022/12/05 08:20:29;;;;;;;15.48;9.48;;;4.50;99.90;;;;;;4144302;28;19940;-67
2022/12/05 08:22:30;;;;;;;16.02;9.93;;;4.50;99.90;;;;;;4144690;28;20030;-67
2022/12/05 08:24:31;;;;;;;16.17;9.32;;;4.40;99.90;;;;;;4144125;28;20046;-67
2022/12/05 08:26:32;;;;;;;14.13;8.63;;;4.50;99.90;;;;;;4141828;28;20055;-67
2022/12/05 08:28:33;;;;;;;16.77;9.68;;;4.50;99.90;;;;;;4139630;28;20042;-67
2022/12/05 08:30:34;;;;;;;16.10;9.65;;;4.30;99.90;;;;;;4142693;28;20057;-67
2022/12/05 08:32:34;;;;;;;17.63;11.13;;;4.10;99.90;;;;;;4145674;28;20053;-67
2022/12/05 08:34:35;;;;;;;17.00;10.05;;;3.80;99.90;;;;;;4141574;28;20148;-67
2022/12/05 08:36:36;;;;;;;15.65;9.25;;;3.80;99.90;;;;;;4138329;28;20447;-68
2022/12/05 08:38:37;;;;;;;15.32;8.70;;;3.80;99.90;;;;;;4142528;28;20100;-68
2022/12/05 08:40:37;;;;;;;14.63;8.75;;;3.90;99.90;;;;;;4145202;28;20050;-67
2022/12/05 08:42:38;;;;;;;14.65;9.40;;;3.90;99.90;;;;;;4142739;28;20046;-67
2022/12/05 08:44:38;;;;;;;13.52;8.38;;;3.90;99.90;;;;;;4144304;28;20045;-68
2022/12/05 08:46:39;;;;;;;14.07;8.75;;;3.90;99.90;;;;;;4143428;28;20120;-68
2022/12/05 08:48:39;;;;;;;16.73;9.10;;;3.90;99.90;;;;;;4141659;28;20104;-68
2022/12/05 08:50:40;;;;;;;14.80;8.95;;;3.90;99.90;;;;;;4139808;28;20037;-67
2022/12/05 08:52:40;;;;;;;15.00;8.57;;;3.90;99.90;;;;;;4144738;28;20096;-68
2022/12/05 08:54:41;;;;;;;14.93;9.38;;;3.90;99.90;;;;;;4144713;28;20097;-68
2022/12/05 08:56:41;;;;;;;15.45;8.52;;;4.00;99.90;;;;;;4140396;28;20056;-68
2022/12/05 08:58:42;;;;;;;15.50;8.55;;;4.00;99.90;;;;;;4143914;28;20494;-67
2022/12/05 09:00:43;;;;;;;13.50;8.27;;;4.00;99.90;;;;;;4143006;28;20071;-67
2022/12/05 09:02:43;;;;;;;12.38;7.95;;;4.00;99.90;;;;;;4139847;28;20041;-67
2022/12/05 09:04:44;;;;;;;14.95;8.55;;;4.00;99.90;;;;;;4141913;28;20772;-67
2022/12/05 09:06:44;;;;;;;14.85;8.75;;;4.00;99.90;;;;;;4141863;28;20057;-68
2022/12/05 09:08:46;;;;;;;16.35;8.80;;;4.00;99.90;;;;;;4145101;28;20026;-68
2022/12/05 09:10:46;;;;;;;15.55;9.10;;;4.00;99.90;;;;;;4140784;28;20413;-67
2022/12/05 09:12:49;;;;;;;15.57;9.80;;;4.00;99.90;;;;;;4138115;28;20038;-68
2022/12/05 09:14:50;;;;;;;17.40;9.75;;;4.10;99.90;;;;;;4147620;28;20476;-67
2022/12/05 09:16:50;;;;;;;13.77;8.70;;;4.10;99.90;;;;;;4144111;28;20042;-67
2022/12/05 09:18:51;;;;;;;16.60;9.35;;;4.10;99.90;;;;;;4145477;28;20042;-68
2022/12/05 09:20:52;;;;;;;16.85;9.82;;;4.10;99.90;;;;;;4142873;28;20037;-68
2022/12/05 09:22:52;;;;;;;19.25;10.38;;;4.10;99.90;;;;;;4145060;28;20538;-67
2022/12/05 09:24:53;;;;;;;15.40;9.25;;;4.20;99.90;;;;;;4144442;28;20045;-68
2022/12/05 09:26:54;;;;;;;13.85;8.98;;;4.20;99.90;;;;;;4140454;28;20087;-67
2022/12/05 09:28:55;;;;;;;15.32;9.10;;;4.20;99.90;;;;;;4143090;28;20404;-67
2022/12/05 09:31:07;;;;;;;17.33;9.43;;;4.20;99.90;;;;;;4143101;28;20125;-67
2022/12/05 09:33:07;;;;;;;15.45;9.75;;;4.20;99.90;;;;;;4143013;28;20069;-68
2022/12/05 09:35:08;;;;;;;16.17;9.38;;;4.20;99.90;;;;;;4140434;28;20408;-69
2022/12/05 09:37:08;;;;;;;16.95;10.02;;;4.20;99.90;;;;;;4140282;28;20042;-68
2022/12/05 09:39:10;;;;;;;18.02;9.95;;;4.20;99.90;;;;;;4140528;28;20044;-68
2022/12/05 09:42:07;;;;;;;15.90;9.30;;;4.20;99.90;;;;;;4139515;28;20470;-67
2022/12/05 09:44:46;;;;;;;15.07;8.75;;;4.20;99.90;;;;;;4140728;28;20034;-68
2022/12/05 09:47:05;;;;;;;16.20;9.18;;;4.20;99.90;;;;;;4128844;28;20067;-67
2022/12/05 09:49:09;;;;;;;14.57;9.20;;;4.20;99.90;;;;;;4139137;28;20092;-67
2022/12/05 09:51:11;;;;;;;13.85;8.40;;;4.30;99.90;;;;;;4143622;28;20431;-68
2022/12/05 09:53:37;;;;;;;13.50;8.97;;;4.30;99.90;;;;;;4140860;28;20421;-68
2022/12/05 09:55:50;;;;;;;16.90;8.65;;;4.30;99.90;;;;;;4139866;28;20034;-68
2022/12/05 09:57:55;;;;;;;14.80;8.35;;;4.30;99.90;;;;;;4141167;28;20050;-67
2022/12/05 09:59:57;;;;;;;14.20;8.23;;;4.30;99.90;;;;;;4141935;28;20060;-67
2022/12/05 10:02:45;;;;;;;15.88;9.20;;;4.40;99.90;;;;;;4137721;28;20049;-68
2022/12/05 10:05:05;;;;;;;13.45;8.15;;;4.40;99.90;;;;;;4140416;28;20041;-67
2022/12/05 10:07:15;;;;;;;13.18;7.85;;;4.40;99.90;;;;;;4139582;28;20393;-67
2022/12/05 10:09:33;;;;;;;14.57;7.47;;;4.40;99.90;;;;;;4137826;28;20049;-68
2022/12/05 10:11:55;;;;;;;12.95;7.53;;;4.40;99.90;;;;;;4138016;28;20650;-67
2022/12/05 10:14:16;;;;;;;13.20;8.25;;;4.40;99.90;;;;;;4138516;28;20073;-67
2022/12/05 10:16:36;;;;;;;11.88;7.10;;;4.40;99.90;;;;;;4139165;28;20535;-68
2022/12/05 10:18:47;;;;;;;12.43;7.68;;;4.50;99.90;;;;;;4141180;28;20112;-67
2022/12/05 10:20:55;;;;;;;11.98;7.65;;;4.50;99.90;;;;;;4140040;28;20045;-68
2022/12/05 10:23:15;;;;;;;13.82;7.55;;;4.50;99.90;;;;;;4142364;28;20388;-68
2022/12/05 10:25:20;;;;;;;12.13;7.32;;;4.50;99.90;;;;;;4139885;28;20049;-68
2022/12/05 10:27:29;;;;;;;12.32;7.35;;;4.60;99.90;;;;;;4139628;28;20129;-67
2022/12/05 10:29:58;;;;;;;13.02;7.82;;;4.60;99.90;;;;;;4139471;28;20516;-67
2022/12/05 10:32:23;;;;;;;12.95;7.32;;;4.60;99.90;;;;;;4129628;28;20057;-68
2022/12/05 10:34:38;;;;;;;12.15;7.80;;;4.60;99.90;;;;;;4140120;28;20030;-68
2022/12/05 10:36:39;;;;;;;12.02;7.32;;;4.60;99.90;;;;;;4136936;28;20069;-68
2022/12/05 10:38:42;;;;;;;12.60;7.60;;;4.60;99.90;;;;;;4142271;28;20096;-68
2022/12/05 10:40:45;;;;;;;;;;;4.70;99.90;;;;;;4139275;28;20042;-68
2022/12/05 10:42:47;;;;;;;11.77;7.30;;;4.70;99.90;;;;;;4139071;28;19917;-68
2022/12/05 10:44:53;;;;;;;10.57;6.97;;;4.70;99.90;;;;;;4139635;28;20037;-68
2022/12/05 10:46:53;;;;;;;10.85;6.97;;;4.70;99.90;;;;;;4137784;28;20038;-68
2022/12/05 10:48:54;;;;;;;11.35;7.55;;;4.70;99.90;;;;;;4139308;28;20048;-68
2022/12/05 10:50:56;;;;;;;12.68;6.90;;;4.70;99.90;;;;;;4139372;28;20041;-67
2022/12/05 10:53:00;;;;;;;12.93;7.93;;;4.70;99.90;;;;;;4140556;28;20878;-67
2022/12/05 10:55:07;;;;;;;13.68;8.07;;;4.60;99.90;;;;;;4139429;28;20100;-68
2022/12/05 10:57:31;;;;;;;12.07;6.78;;;4.70;99.90;;;;;;4138981;28;20049;-68
2022/12/05 10:59:45;;;;;;;8.95;6.05;;;4.70;99.90;;;;;;4138385;28;20033;-67
2022/12/05 11:01:48;;;;;;;11.35;6.78;;;4.70;99.90;;;;;;4137899;28;20128;-68
2022/12/05 11:03:56;;;;;;;11.70;6.68;;;4.70;99.90;;;;;;4140857;28;20393;-67
2022/12/05 11:05:59;;;;;;;10.25;6.60;;;4.70;99.90;;;;;;4139937;28;20045;-67
2022/12/05 11:08:00;;;;;;;9.90;6.07;;;4.70;99.90;;;;;;4139398;28;20052;-67
2022/12/05 11:10:04;;;;;;;8.52;5.95;;;4.70;99.90;;;;;;4139261;28;20407;-67
2022/12/05 11:12:08;;;;;;;9.70;6.20;;;4.70;99.90;;;;;;4137913;28;20360;-67
2022/12/05 11:14:23;;;;;;;10.25;6.63;;;4.70;99.90;;;;;;4139504;28;20050;-68
2022/12/05 11:16:50;;;;;;;9.82;6.90;;;4.70;99.90;;;;;;4136095;28;21162;-67
2022/12/05 11:18:52;;;;;;;8.25;5.82;;;4.70;99.90;;;;;;4139513;28;20042;-67
2022/12/05 11:20:52;;;;;;;12.05;6.97;;;4.70;99.90;;;;;;4139060;28;20484;-67
2022/12/05 11:22:55;;;;;;;10.55;7.22;;;4.70;99.90;;;;;;4139045;28;20061;-67
2022/12/05 11:24:55;;;;;;;;;;;4.70;99.90;;;;;;4146725;28;20435;-67
2022/12/05 11:26:58;;;;;;;12.85;8.07;;;4.70;99.90;;;;;;4137875;28;19918;-67
2022/12/05 11:28:59;;;;;;;12.48;7.18;;;4.70;99.90;;;;;;4139299;28;20046;-67
2022/12/05 11:31:04;;;;;;;11.63;7.75;;;4.70;99.90;;;;;;4137018;28;20425;-67
2022/12/05 11:33:22;;;;;;;10.43;6.85;;;4.70;99.90;;;;;;4137176;28;20065;-67
2022/12/05 11:35:27;;;;;;;10.30;7.20;;;4.70;99.90;;;;;;4137261;28;20037;-67
2022/12/05 11:37:42;;;;;;;10.80;6.68;;;4.70;99.90;;;;;;4137134;28;20054;-67
2022/12/05 11:39:42;;;;;;;11.43;7.25;;;4.70;99.90;;;;;;4139612;28;20042;-68
2022/12/05 11:42:04;;;;;;;9.48;6.85;;;4.70;99.90;;;;;;4137395;28;20045;-68
2022/12/05 11:44:21;;;;;;;10.40;6.90;;;4.70;99.90;;;;;;4136305;28;20076;-67
2022/12/05 11:46:59;;;;;;;11.27;7.50;;;4.70;99.90;;;;;;4137827;28;20555;-67
2022/12/05 11:49:05;;;;;;;8.65;6.05;;;4.70;99.90;;;;;;4136749;28;20045;-67
2022/12/05 11:51:25;;;;;;;9.38;6.28;;;4.70;99.90;;;;;;4138607;28;20449;-67
2022/12/05 11:53:25;;;;;;;8.98;5.97;;;4.60;99.90;;;;;;4126163;28;20043;-67
2022/12/05 11:55:33;;;;;;;10.38;6.75;;;4.60;99.90;;;;;;4135935;28;20089;-67
2022/12/05 11:58:03;;;;;;;9.43;6.70;;;4.60;99.90;;;;;;4137493;28;20507;-67
2022/12/05 12:00:11;;;;;;;12.10;7.07;;;4.60;99.90;;;;;;4138791;28;20600;-68
2022/12/05 12:02:26;;;;;;;8.80;6.13;;;4.60;99.90;;;;;;4136317;28;20065;-67
2022/12/05 12:04:46;;;;;;;9.68;6.53;;;4.60;99.90;;;;;;4138150;28;20092;-67
2022/12/05 12:06:58;;;;;;;10.88;6.72;;;4.60;99.90;;;;;;4137185;28;20547;-66
2022/12/05 12:09:20;;;;;;;8.75;6.13;;;4.60;99.90;;;;;;4138887;28;20065;-66
2022/12/05 12:11:48;;;;;;;9.85;6.53;;;4.60;99.90;;;;;;4136522;28;20040;-67
2022/12/05 12:14:16;;;;;;;10.18;6.60;;;4.50;99.90;;;;;;4138289;28;20433;-66